createdAt,value
2018-12-22T00:02:22.036Z,92.65
2018-12-22T00:04:50.991Z,92.74
2018-12-22T00:07:20.089Z,93.38
2018-12-22T00:09:49.131Z,93.77
2018-12-22T00:12:18.304Z,93.77
2018-12-22T00:14:47.352Z,93.80
2018-12-22T00:17:16.452Z,93.79
2018-12-22T00:19:45.376Z,93.31
2018-12-22T00:22:14.461Z,93.11
2018-12-22T00:24:43.489Z,92.44
2018-12-22T00:27:12.648Z,92.09
2018-12-22T00:29:41.581Z,91.74
2018-12-22T00:32:10.565Z,92.42
2018-12-22T00:34:39.545Z,92.65
2018-12-22T00:37:08.447Z,93.27
2018-12-22T00:39:37.381Z,93.61
2018-12-22T00:42:06.421Z,93.34
2018-12-22T00:44:35.573Z,93.66
2018-12-22T00:47:04.625Z,94.53
2018-12-22T00:49:33.642Z,94.62
2018-12-22T00:52:02.680Z,95.36
2018-12-22T00:54:31.635Z,95.88
2018-12-22T00:57:00.618Z,95.65
2018-12-22T00:59:29.563Z,96.58
2018-12-22T01:01:58.650Z,96.26
2018-12-22T01:04:27.891Z,96.33
2018-12-22T01:06:57.121Z,96.47
2018-12-22T01:09:26.329Z,97.42
2018-12-22T01:11:55.350Z,96.88
2018-12-22T01:14:24.649Z,97.35
2018-12-22T01:16:53.681Z,97.67
2018-12-22T01:19:22.760Z,98.34
2018-12-22T01:21:51.900Z,98.53
2018-12-22T01:24:21.179Z,98.22
2018-12-22T01:26:50.317Z,97.83
2018-12-22T01:29:19.327Z,98.36
2018-12-22T01:31:48.409Z,98.66
2018-12-22T01:34:17.580Z,99.00
2018-12-22T01:36:46.555Z,98.37
2018-12-22T01:39:15.684Z,99.16
2018-12-22T01:41:44.815Z,98.55
2018-12-22T01:44:13.732Z,98.50
2018-12-22T01:46:42.708Z,98.84
2018-12-22T01:49:11.860Z,99.00
2018-12-22T01:51:41.908Z,98.74
2018-12-22T01:54:11.248Z,98.63
2018-12-22T01:56:40.402Z,98.95
2018-12-22T01:59:09.426Z,98.83
2018-12-22T02:01:38.509Z,98.69
2018-12-22T02:04:07.485Z,98.77
2018-12-22T02:06:36.445Z,99.21
2018-12-22T02:09:07.527Z,98.44
2018-12-22T02:11:36.491Z,98.39
2018-12-22T02:14:05.607Z,99.42
2018-12-22T02:16:34.633Z,99.11
2018-12-22T02:19:03.664Z,99.65
2018-12-22T02:21:32.693Z,99.90
2018-12-22T02:24:01.725Z,99.78
2018-12-22T02:26:30.681Z,99.88
2018-12-22T02:28:59.839Z,99.57
2018-12-22T02:31:28.796Z,99.66
2018-12-22T02:33:57.797Z,99.63
2018-12-22T02:36:26.823Z,100.00
2018-12-22T02:38:55.926Z,99.57
2018-12-22T02:41:25.048Z,99.85
2018-12-22T02:43:54.059Z,99.96
2018-12-22T02:46:23.086Z,100.00
2018-12-22T02:48:51.996Z,99.74
2018-12-22T02:51:20.903Z,99.56
2018-12-22T02:53:49.937Z,99.80
2018-12-22T02:56:18.915Z,99.62
2018-12-22T02:58:47.976Z,100.00
2018-12-22T03:01:16.972Z,99.95
2018-12-22T03:03:45.916Z,100.00
2018-12-22T03:06:15.013Z,100.00
2018-12-22T03:08:43.996Z,100.00
2018-12-22T03:11:12.906Z,100.00
2018-12-22T03:13:41.802Z,100.00
2018-12-22T03:16:10.924Z,100.00
2018-12-22T03:18:39.960Z,100.00
2018-12-22T03:21:09.055Z,99.72
2018-12-22T03:23:37.991Z,100.00
2018-12-22T03:26:06.976Z,99.60
2018-12-22T03:28:35.873Z,99.61
2018-12-22T03:31:05.003Z,99.62
2018-12-22T03:33:34.240Z,99.54
2018-12-22T03:36:03.163Z,99.22
2018-12-22T03:38:32.184Z,99.94
2018-12-22T03:41:01.233Z,99.57
2018-12-22T03:43:30.227Z,99.97
2018-12-22T03:45:59.212Z,100.00
2018-12-22T03:48:28.259Z,99.50
2018-12-22T03:50:57.132Z,100.00
2018-12-22T03:53:26.193Z,100.00
2018-12-22T03:55:55.353Z,99.93
2018-12-22T03:58:24.412Z,100.00
2018-12-22T04:00:53.413Z,100.00
2018-12-22T04:03:22.569Z,100.00
2018-12-22T04:05:51.859Z,100.00
2018-12-22T04:08:20.972Z,99.87
2018-12-22T04:10:49.967Z,100.00
2018-12-22T04:13:19.052Z,99.97
2018-12-22T04:15:47.999Z,100.00
2018-12-22T04:18:16.903Z,100.00
2018-12-22T04:20:45.959Z,100.00
2018-12-22T04:23:14.969Z,100.00
2018-12-22T04:25:43.984Z,100.00
2018-12-22T04:28:12.982Z,100.00
2018-12-22T04:30:41.929Z,100.00
2018-12-22T04:33:10.916Z,100.00
2018-12-22T04:35:39.869Z,100.00
2018-12-22T04:38:08.783Z,100.00
2018-12-22T04:40:37.809Z,100.00
2018-12-22T04:43:06.746Z,100.00
2018-12-22T04:45:35.804Z,100.00
2018-12-22T04:48:04.829Z,100.00
2018-12-22T04:50:33.715Z,100.00
2018-12-22T04:53:02.719Z,100.00
2018-12-22T04:55:31.590Z,100.00
2018-12-22T04:58:00.544Z,100.00
2018-12-22T05:00:29.622Z,100.00
2018-12-22T05:02:58.567Z,100.00
2018-12-22T05:05:27.445Z,100.00
2018-12-22T05:07:56.408Z,100.00
2018-12-22T05:10:25.439Z,100.00
2018-12-22T05:12:54.445Z,100.00
2018-12-22T05:15:23.422Z,100.00
2018-12-22T05:17:52.400Z,100.00
2018-12-22T05:20:21.400Z,100.00
2018-12-22T05:22:50.265Z,100.00
2018-12-22T05:25:19.205Z,100.00
2018-12-22T05:27:48.188Z,100.00
2018-12-22T05:30:17.250Z,100.00
2018-12-22T05:32:46.233Z,100.00
2018-12-22T05:35:15.161Z,100.00
2018-12-22T05:37:44.085Z,100.00
2018-12-22T05:40:13.063Z,100.00
2018-12-22T05:42:41.916Z,100.00
2018-12-22T05:45:10.953Z,100.00
2018-12-22T05:47:39.812Z,100.00
2018-12-22T05:50:08.886Z,100.00
2018-12-22T05:52:37.860Z,100.00
2018-12-22T05:55:06.877Z,100.00
2018-12-22T05:57:35.824Z,100.00
2018-12-22T06:00:05.609Z,100.00
2018-12-22T06:02:34.566Z,100.00
2018-12-22T06:05:05.740Z,100.00
2018-12-22T06:07:34.749Z,100.00
2018-12-22T06:10:03.780Z,100.00
2018-12-22T06:12:32.675Z,100.00
2018-12-22T06:15:01.669Z,100.00
2018-12-22T06:17:30.685Z,100.00
2018-12-22T06:19:59.641Z,100.00
2018-12-22T06:22:28.717Z,99.55
2018-12-22T06:24:57.836Z,98.20
2018-12-22T06:27:26.821Z,98.55
2018-12-22T06:29:59.771Z,98.27
2018-12-22T06:32:28.902Z,97.66
2018-12-22T06:34:57.857Z,97.09
2018-12-22T06:37:26.793Z,97.09
2018-12-22T06:39:55.785Z,97.51
2018-12-22T06:42:24.728Z,97.61
2018-12-22T06:44:53.742Z,98.19
2018-12-22T06:47:22.781Z,98.79
2018-12-22T06:49:51.702Z,99.02
2018-12-22T06:52:20.689Z,99.54
2018-12-22T06:54:49.691Z,99.68
2018-12-22T06:57:18.628Z,99.52
2018-12-22T06:59:47.513Z,99.77
2018-12-22T07:02:16.681Z,100.00
2018-12-22T07:04:45.749Z,100.00
2018-12-22T07:07:14.845Z,100.00
2018-12-22T07:09:43.785Z,100.00
2018-12-22T07:12:12.839Z,100.00
2018-12-22T07:14:41.978Z,100.00
2018-12-22T07:17:10.937Z,98.69
2018-12-22T07:19:40.022Z,99.28
2018-12-22T07:22:09.045Z,98.42
2018-12-22T07:24:38.092Z,97.26
2018-12-22T07:27:07.186Z,97.74
2018-12-22T07:29:36.529Z,97.99
2018-12-22T07:32:05.664Z,98.88
2018-12-22T07:34:34.551Z,98.21
2018-12-22T07:37:03.471Z,97.95
2018-12-22T07:39:32.435Z,97.96
2018-12-22T07:42:01.390Z,97.22
2018-12-22T07:44:30.400Z,96.71
2018-12-22T07:46:59.397Z,97.08
2018-12-22T07:49:28.421Z,97.17
2018-12-22T07:51:57.562Z,96.57
2018-12-22T07:54:26.562Z,96.68
2018-12-22T07:56:55.618Z,95.34
2018-12-22T07:59:24.680Z,95.81
2018-12-22T08:01:53.709Z,95.08
2018-12-22T08:04:22.768Z,95.00
2018-12-22T08:06:51.765Z,95.16
2018-12-22T08:09:20.760Z,94.75
2018-12-22T08:11:49.809Z,94.87
2018-12-22T08:14:18.849Z,94.23
2018-12-22T08:16:47.840Z,94.48
2018-12-22T08:19:16.968Z,94.25
2018-12-22T08:21:46.076Z,94.87
2018-12-22T08:24:15.191Z,95.30
2018-12-22T08:26:44.265Z,95.67
2018-12-22T08:29:13.329Z,95.94
2018-12-22T08:31:42.304Z,95.63
2018-12-22T08:34:11.489Z,96.60
2018-12-22T08:36:40.410Z,96.12
2018-12-22T08:39:09.475Z,96.92
2018-12-22T08:41:38.442Z,96.62
2018-12-22T08:44:07.605Z,96.68
2018-12-22T08:46:36.525Z,97.09
2018-12-22T08:49:05.576Z,96.74
2018-12-22T08:51:35.501Z,96.56
2018-12-22T08:54:04.498Z,95.42
2018-12-22T08:56:33.609Z,95.76
2018-12-22T08:59:02.632Z,95.17
2018-12-22T09:01:31.694Z,94.47
2018-12-22T09:04:00.628Z,94.54
2018-12-22T09:06:29.821Z,94.69
2018-12-22T09:08:58.881Z,93.55
2018-12-22T09:11:27.875Z,93.81
2018-12-22T09:13:56.879Z,93.10
2018-12-22T09:16:25.997Z,93.56
2018-12-22T09:18:55.021Z,94.36
2018-12-22T09:21:24.206Z,95.09
2018-12-22T09:23:53.150Z,95.43
2018-12-22T09:26:22.231Z,95.92
2018-12-22T09:28:51.237Z,96.90
2018-12-22T09:31:20.234Z,96.85
2018-12-22T09:33:49.209Z,97.10
2018-12-22T09:36:18.693Z,96.96
2018-12-22T09:38:47.658Z,97.59
2018-12-22T09:41:16.672Z,98.18
2018-12-22T09:43:45.625Z,97.99
2018-12-22T09:46:14.741Z,98.40
2018-12-22T09:48:43.678Z,98.01
2018-12-22T09:51:12.694Z,98.88
2018-12-22T09:53:41.789Z,98.68
2018-12-22T09:56:10.866Z,99.59
2018-12-22T09:58:39.968Z,99.73
2018-12-22T10:01:09.526Z,99.72
2018-12-22T10:03:38.940Z,100.00
2018-12-22T10:06:07.998Z,100.00
2018-12-22T10:08:36.989Z,100.00
2018-12-22T10:11:06.052Z,100.00
2018-12-22T10:13:35.658Z,100.00
2018-12-22T10:16:04.717Z,100.00
2018-12-22T10:18:33.793Z,100.00
2018-12-22T10:21:02.831Z,100.00
2018-12-22T10:23:32.014Z,100.00
2018-12-22T10:26:01.002Z,100.00
2018-12-22T10:28:30.153Z,100.00
2018-12-22T10:30:59.157Z,100.00
2018-12-22T10:33:28.323Z,100.00
2018-12-22T10:35:57.321Z,100.00
2018-12-22T10:38:26.302Z,100.00
2018-12-22T10:40:55.226Z,100.00
2018-12-22T10:43:24.205Z,100.00
2018-12-22T10:45:53.286Z,100.00
2018-12-22T10:48:22.575Z,100.00
2018-12-22T10:50:51.593Z,98.75
2018-12-22T10:53:21.589Z,98.24
2018-12-22T10:55:50.578Z,97.77
2018-12-22T10:58:19.538Z,97.06
2018-12-22T11:00:48.644Z,96.61
2018-12-22T11:03:17.689Z,97.18
2018-12-22T11:05:46.677Z,96.93
2018-12-22T11:08:15.790Z,96.51
2018-12-22T11:10:44.852Z,95.81
2018-12-22T11:13:13.772Z,95.80
2018-12-22T11:15:42.843Z,95.34
2018-12-22T11:18:11.933Z,94.68
2018-12-22T11:20:40.850Z,95.29
2018-12-22T11:23:10.240Z,96.01
2018-12-22T11:25:39.269Z,95.89
2018-12-22T11:28:08.506Z,95.45
2018-12-22T11:30:40.094Z,95.99
2018-12-22T11:33:09.175Z,95.58
2018-12-22T11:35:38.140Z,94.38
2018-12-22T11:38:07.241Z,94.10
2018-12-22T11:40:36.276Z,92.64
2018-12-22T11:43:05.324Z,92.30
2018-12-22T11:45:34.804Z,91.06
2018-12-22T11:49:11.962Z,90.03
2018-12-22T11:51:40.909Z,90.40
2018-12-22T11:54:09.921Z,88.75
2018-12-22T11:56:39.412Z,89.47
2018-12-22T11:59:08.601Z,88.00
2018-12-22T12:01:43.483Z,87.92
2018-12-22T12:04:08.908Z,87.52
2018-12-22T12:06:37.873Z,87.91
2018-12-22T12:09:07.985Z,87.52
2018-12-22T12:11:36.934Z,86.44
2018-12-22T12:14:05.857Z,87.43
2018-12-22T12:16:45.674Z,86.65
2018-12-22T12:19:19.603Z,87.66
2018-12-22T12:21:48.688Z,87.69
2018-12-22T12:24:17.952Z,87.63
2018-12-22T12:26:47.034Z,88.71
2018-12-22T12:29:16.061Z,88.84
2018-12-22T12:31:52.076Z,89.02
2018-12-22T12:34:16.217Z,89.80
2018-12-22T12:36:46.628Z,89.28
2018-12-22T12:39:16.974Z,91.10
2018-12-22T12:41:46.375Z,91.84
2018-12-22T12:44:15.334Z,92.82
2018-12-22T12:46:49.484Z,92.92
2018-12-22T12:49:19.665Z,93.36
2018-12-22T12:51:48.672Z,92.53
2018-12-22T12:54:17.672Z,92.23
2018-12-22T12:56:50.662Z,93.24
2018-12-22T12:59:19.850Z,92.93
2018-12-22T13:01:49.033Z,93.22
2018-12-22T13:04:18.065Z,93.20
2018-12-22T13:06:47.152Z,93.63
2018-12-22T13:09:16.334Z,93.33
2018-12-22T13:11:45.436Z,92.79
2018-12-22T13:14:18.126Z,93.24
2018-12-22T13:16:47.143Z,92.38
2018-12-22T13:19:16.282Z,92.31
2018-12-22T13:21:49.331Z,91.67
2018-12-22T13:24:18.579Z,91.20
2018-12-22T13:26:47.877Z,90.55
2018-12-22T13:29:16.929Z,89.18
2018-12-22T13:31:46.517Z,88.59
2018-12-22T13:34:15.542Z,87.83
2018-12-22T13:36:44.686Z,86.20
2018-12-22T13:39:22.802Z,85.69
2018-12-22T13:41:52.010Z,84.43
2018-12-22T13:44:20.988Z,82.22
2018-12-22T13:46:50.100Z,83.98
2018-12-22T13:49:19.435Z,83.77
2018-12-22T13:51:48.668Z,83.90
2018-12-22T13:54:22.153Z,85.28
2018-12-22T13:56:51.293Z,86.32
2018-12-22T13:59:20.353Z,87.50
2018-12-22T14:01:53.061Z,88.57
2018-12-22T14:04:22.293Z,88.27
2018-12-22T14:06:51.264Z,88.23
2018-12-22T14:09:20.500Z,87.90
2018-12-22T14:11:49.640Z,87.32
2018-12-22T14:14:21.897Z,86.44
2018-12-22T14:16:58.088Z,86.91
2018-12-22T14:19:27.378Z,87.19
2018-12-22T14:21:56.446Z,86.54
2018-12-22T14:24:34.905Z,85.57
2018-12-22T14:27:04.017Z,84.92
2018-12-22T14:29:33.117Z,84.92
2018-12-22T14:32:02.115Z,84.92
2018-12-22T14:34:39.489Z,85.35
2018-12-22T14:37:08.574Z,85.30
2018-12-22T14:39:38.697Z,85.10
2018-12-22T14:42:07.729Z,85.33
2018-12-22T14:44:36.801Z,85.89
2018-12-22T14:47:05.801Z,85.58
2018-12-22T14:49:34.909Z,86.45
2018-12-22T14:52:03.953Z,85.73
2018-12-22T14:54:36.413Z,86.50
2018-12-22T14:57:05.493Z,87.03
2018-12-22T14:59:34.775Z,86.42
2018-12-22T15:02:04.057Z,87.29
2018-12-22T15:04:33.990Z,86.87
2018-12-22T15:07:03.706Z,87.57
2018-12-22T15:09:32.709Z,87.40
2018-12-22T15:12:01.929Z,88.14
2018-12-22T15:14:31.142Z,88.04
2018-12-22T15:17:00.303Z,87.66
2018-12-22T15:19:29.535Z,87.77
2018-12-22T15:22:00.285Z,87.27
2018-12-22T15:24:29.374Z,86.84
2018-12-22T15:26:58.356Z,86.97
2018-12-22T15:29:27.521Z,87.00
2018-12-22T15:31:56.556Z,86.81
2018-12-22T15:34:25.797Z,87.80
2018-12-22T15:36:54.856Z,89.14
2018-12-22T15:39:23.994Z,89.75
2018-12-22T15:41:53.034Z,90.48
2018-12-22T15:44:22.190Z,91.27
2018-12-22T15:46:51.158Z,91.41
2018-12-22T15:49:22.461Z,91.58
2018-12-22T15:51:51.537Z,91.47
2018-12-22T15:54:20.694Z,91.63
2018-12-22T15:56:50.186Z,90.99
2018-12-22T15:59:19.215Z,90.97
2018-12-22T16:01:48.177Z,91.24
2018-12-22T16:04:17.585Z,91.44
2018-12-22T16:06:46.682Z,91.87
2018-12-22T16:09:15.782Z,91.43
2018-12-22T16:11:44.855Z,91.33
2018-12-22T16:14:13.877Z,90.64
2018-12-22T16:16:42.998Z,90.81
2018-12-22T16:19:12.142Z,90.11
2018-12-22T16:21:41.429Z,90.22
2018-12-22T16:24:10.425Z,89.12
2018-12-22T16:26:39.609Z,89.15
2018-12-22T16:29:22.210Z,88.80
2018-12-22T16:31:51.525Z,88.91
2018-12-22T16:34:21.877Z,88.81
2018-12-22T16:36:51.200Z,88.35
2018-12-22T16:39:20.454Z,87.71
2018-12-22T16:41:49.710Z,87.40
2018-12-22T16:44:19.489Z,87.06
2018-12-22T16:46:48.626Z,87.59
2018-12-22T16:49:17.746Z,88.10
2018-12-22T16:51:46.844Z,87.98
2018-12-22T16:54:15.979Z,88.79
2018-12-22T16:56:45.131Z,88.94
2018-12-22T16:59:14.277Z,89.37
2018-12-22T17:01:53.806Z,89.34
2018-12-22T17:04:22.926Z,89.61
2018-12-22T17:06:52.049Z,89.41
2018-12-22T17:09:21.115Z,89.25
2018-12-22T17:11:50.476Z,89.92
2018-12-22T17:14:19.528Z,90.28
2018-12-22T17:16:48.941Z,91.12
2018-12-22T17:19:17.974Z,91.65
2018-12-22T17:21:58.071Z,92.27
2018-12-22T17:24:33.870Z,93.71
2018-12-22T17:27:03.073Z,93.81
2018-12-22T17:29:32.313Z,94.46
2018-12-22T17:32:01.595Z,94.25
2018-12-22T17:34:30.981Z,94.34
2018-12-22T17:37:00.626Z,94.94
2018-12-22T17:39:36.609Z,94.61
2018-12-22T17:42:01.497Z,95.21
2018-12-22T17:44:30.853Z,95.09
2018-12-22T17:47:00.136Z,95.58
2018-12-22T17:49:29.561Z,95.10
2018-12-22T17:51:58.925Z,95.46
2018-12-22T17:54:28.784Z,94.47
2018-12-22T17:56:57.994Z,94.65
2018-12-22T17:59:27.390Z,95.29
2018-12-22T18:01:56.673Z,94.63
2018-12-22T18:04:26.196Z,95.33
2018-12-22T18:06:55.479Z,94.62
2018-12-22T18:09:24.942Z,95.63
2018-12-22T18:11:54.245Z,95.36
2018-12-22T18:14:23.601Z,94.74
2018-12-22T18:16:52.888Z,94.12
2018-12-22T18:19:22.250Z,94.34
2018-12-22T18:21:51.456Z,94.38
2018-12-22T18:24:20.806Z,94.86
2018-12-22T18:26:50.144Z,95.10
2018-12-22T18:29:19.390Z,95.91
2018-12-22T18:31:49.914Z,96.03
2018-12-22T18:34:19.342Z,95.11
2018-12-22T18:36:48.613Z,95.87
2018-12-22T18:39:17.970Z,95.40
2018-12-22T18:41:47.281Z,95.62
2018-12-22T18:44:16.761Z,95.06
2018-12-22T18:46:46.026Z,95.33
2018-12-22T18:49:15.478Z,95.51
2018-12-22T18:51:44.878Z,95.82
2018-12-22T18:54:14.486Z,95.95
2018-12-22T18:56:43.857Z,95.87
2018-12-22T18:59:13.545Z,95.54
2018-12-22T19:01:43.033Z,96.06
2018-12-22T19:04:12.540Z,96.36
2018-12-22T19:06:42.077Z,96.49
2018-12-22T19:09:16.288Z,96.99
2018-12-22T19:11:45.742Z,96.68
2018-12-22T19:14:15.169Z,95.81
2018-12-22T19:16:44.845Z,96.71
2018-12-22T19:19:14.187Z,95.71
2018-12-22T19:21:43.599Z,95.83
2018-12-22T19:24:12.981Z,95.31
2018-12-22T19:26:42.349Z,95.62
2018-12-22T19:29:12.136Z,95.65
2018-12-22T19:31:42.194Z,95.92
2018-12-22T19:34:11.506Z,96.61
2018-12-22T19:36:40.765Z,96.06
2018-12-22T19:39:10.127Z,96.53
2018-12-22T19:41:39.493Z,96.57
2018-12-22T19:44:08.964Z,96.06
2018-12-22T19:46:38.400Z,96.98
2018-12-22T19:49:07.629Z,97.33
2018-12-22T19:51:37.143Z,97.13
2018-12-22T19:54:06.601Z,97.18
2018-12-22T19:56:36.038Z,97.15
2018-12-22T19:59:05.338Z,97.87
2018-12-22T20:01:34.777Z,97.42
2018-12-22T20:04:04.149Z,97.92
2018-12-22T20:06:33.537Z,97.66
2018-12-22T20:09:02.931Z,98.59
2018-12-22T20:11:32.441Z,98.28
2018-12-22T20:14:01.853Z,98.66
2018-12-22T20:16:31.465Z,98.68
2018-12-22T20:19:01.049Z,99.43
2018-12-22T20:21:30.816Z,99.18
2018-12-22T20:24:00.173Z,99.14
2018-12-22T20:26:29.273Z,99.31
2018-12-22T20:28:58.716Z,99.49
2018-12-22T20:31:27.841Z,99.33
2018-12-22T20:33:57.246Z,99.75
2018-12-22T20:36:26.585Z,99.59
2018-12-22T20:38:56.081Z,100.00
2018-12-22T20:41:25.378Z,99.86
2018-12-22T20:43:54.801Z,99.68
2018-12-22T20:46:24.230Z,100.00
2018-12-22T20:48:53.590Z,100.00
2018-12-22T20:51:23.009Z,99.96
2018-12-22T20:53:52.385Z,99.44
2018-12-22T20:56:21.857Z,99.92
2018-12-22T20:58:51.318Z,100.00
2018-12-22T21:01:20.759Z,99.77
2018-12-22T21:03:50.209Z,99.75
2018-12-22T21:06:23.705Z,99.89
2018-12-22T21:08:53.044Z,99.58
2018-12-22T21:11:22.933Z,99.92
2018-12-22T21:13:52.333Z,100.00
2018-12-22T21:16:21.847Z,99.89
2018-12-22T21:18:51.237Z,99.63
2018-12-22T21:21:20.575Z,99.87
2018-12-22T21:23:49.905Z,100.00
2018-12-22T21:26:19.205Z,99.82
2018-12-22T21:28:48.653Z,100.00
2018-12-22T21:31:18.157Z,100.00
2018-12-22T21:33:48.633Z,99.31
2018-12-22T21:36:17.895Z,99.77
2018-12-22T21:38:47.315Z,99.23
2018-12-22T21:41:16.629Z,99.15
2018-12-22T21:43:45.875Z,99.15
2018-12-22T21:46:15.255Z,98.50
2018-12-22T21:48:44.804Z,98.10
2018-12-22T21:51:14.010Z,98.48
2018-12-22T21:53:43.077Z,97.67
2018-12-22T21:56:12.291Z,97.76
2018-12-22T21:58:41.406Z,97.53
2018-12-22T22:01:10.890Z,97.69
2018-12-22T22:03:39.986Z,97.75
2018-12-22T22:06:09.829Z,97.15
2018-12-22T22:08:38.861Z,96.48
2018-12-22T22:11:08.005Z,97.00
2018-12-22T22:13:37.073Z,97.05
2018-12-22T22:16:06.401Z,96.79
2018-12-22T22:18:35.581Z,96.92
2018-12-22T22:21:04.641Z,96.56
2018-12-22T22:23:33.697Z,96.75
2018-12-22T22:26:02.808Z,96.84
2018-12-22T22:28:32.041Z,96.66
2018-12-22T22:31:01.369Z,96.75
2018-12-22T22:33:30.461Z,96.76
2018-12-22T22:35:59.405Z,96.90
2018-12-22T22:38:28.393Z,96.67
2018-12-22T22:40:57.414Z,96.91
2018-12-22T22:43:26.421Z,96.91
2018-12-22T22:45:56.341Z,97.04
2018-12-22T22:48:25.307Z,96.56
2018-12-22T22:50:54.472Z,97.32
2018-12-22T22:53:23.593Z,97.83
2018-12-22T22:55:52.665Z,97.12
2018-12-22T22:58:21.714Z,97.15
2018-12-22T23:00:50.912Z,97.29
2018-12-22T23:03:20.050Z,97.33
2018-12-22T23:05:49.086Z,96.96
2018-12-22T23:08:18.177Z,97.45
2018-12-22T23:10:47.243Z,97.32
2018-12-22T23:13:16.426Z,97.08
2018-12-22T23:15:45.545Z,96.85
2018-12-22T23:18:14.603Z,96.78
2018-12-22T23:20:43.670Z,96.98
2018-12-22T23:23:12.770Z,96.79
2018-12-22T23:25:41.770Z,96.73
2018-12-22T23:28:11.252Z,97.58
2018-12-22T23:30:40.305Z,96.67
2018-12-22T23:33:09.479Z,96.75
2018-12-22T23:35:38.553Z,97.21
2018-12-22T23:38:07.588Z,96.76
2018-12-22T23:40:36.701Z,96.84
2018-12-22T23:43:05.821Z,96.70
2018-12-22T23:45:34.977Z,97.65
2018-12-22T23:48:04.185Z,97.14
2018-12-22T23:50:33.261Z,97.78
2018-12-22T23:53:02.164Z,98.45
2018-12-22T23:55:31.218Z,97.87
2018-12-22T23:58:00.273Z,98.08
